createdAt,value
2022-12-26T00:01:53.584Z,26.88
2022-12-26T00:04:51.844Z,29.92
2022-12-26T00:07:09.924Z,27.60
2022-12-26T00:09:38.064Z,28.98
2022-12-26T00:12:06.141Z,28.60
2022-12-26T00:14:34.314Z,28.88
2022-12-26T00:17:02.155Z,29.35
2022-12-26T00:19:30.303Z,30.65
2022-12-26T00:21:58.117Z,30.48
2022-12-26T00:24:26.297Z,29.83
2022-12-26T00:26:54.076Z,28.77
2022-12-26T00:29:23.004Z,30.23
2022-12-26T00:31:50.924Z,31.73
2022-12-26T00:34:20.131Z,29.10
2022-12-26T00:36:50.124Z,29.63
2022-12-26T00:39:18.227Z,28.98
2022-12-26T00:41:45.972Z,31.50
2022-12-26T00:44:14.023Z,31.67
2022-12-26T00:46:41.921Z,31.58
2022-12-26T00:49:12.177Z,31.08
2022-12-26T00:51:40.172Z,30.08
2022-12-26T00:54:08.298Z,31.50
2022-12-26T00:56:36.014Z,28.95
2022-12-26T00:59:04.119Z,32.85
2022-12-26T01:01:32.720Z,29.30
2022-12-26T01:04:02.248Z,30.73
2022-12-26T01:06:31.024Z,32.20
2022-12-26T01:08:59.935Z,32.20
2022-12-26T01:11:43.106Z,31.60
2022-12-26T01:14:18.507Z,29.83
2022-12-26T01:16:47.827Z,31.63
2022-12-26T01:19:17.264Z,30.27
2022-12-26T01:21:45.066Z,29.90
2022-12-26T01:24:14.614Z,31.23
2022-12-26T01:26:42.465Z,31.23
2022-12-26T01:29:10.661Z,32.90
2022-12-26T01:31:38.537Z,31.35
2022-12-26T01:34:06.668Z,34.45
2022-12-26T01:36:34.546Z,33.35
2022-12-26T01:39:02.637Z,32.33
2022-12-26T01:41:32.458Z,31.98
2022-12-26T01:44:06.580Z,33.33
2022-12-26T01:49:52.722Z,32.13
2022-12-26T01:52:44.883Z,31.73
2022-12-26T01:55:17.842Z,33.03
2022-12-26T01:57:50.446Z,33.40
2022-12-26T02:00:18.753Z,33.93
2022-12-26T02:03:05.497Z,31.27
2022-12-26T02:05:34.413Z,32.60
2022-12-26T02:08:26.918Z,30.67
2022-12-26T02:11:05.419Z,29.48
2022-12-26T02:13:36.117Z,33.83
2022-12-26T02:16:07.152Z,29.08
2022-12-26T02:18:35.356Z,28.48
2022-12-26T02:21:28.627Z,27.48
2022-12-26T02:24:16.076Z,30.08
2022-12-26T02:27:02.705Z,28.85
2022-12-26T02:30:05.312Z,26.63
2022-12-26T02:35:17.478Z,22.45
2022-12-26T02:38:08.754Z,21.92
2022-12-26T02:40:49.335Z,20.70
2022-12-26T02:43:33.971Z,20.17
2022-12-26T02:46:37.710Z,18.08
2022-12-26T02:49:21.966Z,19.80
2022-12-26T02:52:34.637Z,17.52
2022-12-26T02:55:33.899Z,18.17
2022-12-26T02:58:40.589Z,15.23
2022-12-26T03:01:49.710Z,12.73
2022-12-26T03:04:41.539Z,12.98
2022-12-26T03:07:42.597Z,12.85
2022-12-26T03:10:38.742Z,12.57
2022-12-26T03:13:17.362Z,13.73
2022-12-26T03:16:09.666Z,11.90
2022-12-26T03:18:57.984Z,12.38
2022-12-26T03:21:34.184Z,11.07
2022-12-26T03:24:02.452Z,11.68
2022-12-26T03:26:41.399Z,11.70
2022-12-26T03:29:32.135Z,11.40
2022-12-26T03:32:03.434Z,12.43
2022-12-26T03:34:31.724Z,11.55
2022-12-26T03:37:50.343Z,11.00
2022-12-26T03:41:22.464Z,12.35
2022-12-26T03:44:45.163Z,12.57
2022-12-26T03:47:48.254Z,11.55
2022-12-26T03:50:50.373Z,12.32
2022-12-26T03:53:44.282Z,12.35
2022-12-26T03:56:40.702Z,11.70
2022-12-26T03:59:35.235Z,12.13
2022-12-26T04:02:26.698Z,10.77
2022-12-26T04:05:16.263Z,12.50
2022-12-26T04:08:18.579Z,12.68
2022-12-26T04:11:12.215Z,13.07
2022-12-26T04:14:10.999Z,13.18
2022-12-26T04:17:19.742Z,12.68
2022-12-26T04:20:02.830Z,13.88
2022-12-26T04:23:04.027Z,12.07
2022-12-26T04:26:18.485Z,12.48
2022-12-26T04:29:06.554Z,13.50
2022-12-26T04:32:01.614Z,13.50
2022-12-26T04:35:33.655Z,13.48
2022-12-26T04:38:22.295Z,10.85
2022-12-26T04:41:14.825Z,11.68
2022-12-26T04:44:03.205Z,11.80
2022-12-26T04:46:35.260Z,13.10
2022-12-26T04:49:25.447Z,13.02
2022-12-26T04:51:56.623Z,11.65
2022-12-26T04:54:25.382Z,12.70
2022-12-26T04:56:55.124Z,11.57
2022-12-26T04:59:24.177Z,11.13
2022-12-26T05:02:12.157Z,12.05
2022-12-26T05:04:58.925Z,12.07
2022-12-26T05:07:52.336Z,12.68
2022-12-26T05:10:23.017Z,12.73
2022-12-26T05:12:51.835Z,17.58
2022-12-26T05:15:20.153Z,24.50
2022-12-26T05:18:06.965Z,27.95
2022-12-26T05:20:53.353Z,32.75
2022-12-26T05:23:44.033Z,31.08
2022-12-26T05:26:39.361Z,34.60
2022-12-26T05:29:07.663Z,33.65
2022-12-26T05:31:37.121Z,34.70
2022-12-26T05:34:07.904Z,33.83
2022-12-26T05:36:42.600Z,35.92
2022-12-26T05:39:10.777Z,37.35
2022-12-26T05:41:39.130Z,39.22
2022-12-26T05:44:08.290Z,39.00
2022-12-26T05:46:36.817Z,41.42
2022-12-26T05:49:06.126Z,41.58
2022-12-26T05:51:35.259Z,39.90
2022-12-26T05:54:03.953Z,39.75
2022-12-26T05:56:31.634Z,39.70
2022-12-26T05:59:01.419Z,41.20
2022-12-26T06:01:30.570Z,42.10
2022-12-26T06:04:00.844Z,41.22
2022-12-26T06:06:29.254Z,44.60
2022-12-26T06:08:57.651Z,46.72
2022-12-26T06:11:26.974Z,44.05
2022-12-26T06:13:56.018Z,42.25
2022-12-26T06:16:24.180Z,48.53
2022-12-26T06:18:55.475Z,44.03
2022-12-26T06:21:24.145Z,43.47
2022-12-26T06:23:52.364Z,43.63
2022-12-26T06:26:20.233Z,45.10
2022-12-26T06:28:48.579Z,44.42
2022-12-26T06:31:21.092Z,44.03
2022-12-26T06:33:58.447Z,43.97
2022-12-26T06:36:27.830Z,43.90
2022-12-26T06:38:57.892Z,43.55
2022-12-26T06:41:26.035Z,47.53
2022-12-26T06:43:56.165Z,44.42
2022-12-26T06:46:25.475Z,43.05
2022-12-26T06:48:53.816Z,45.47
2022-12-26T06:51:24.666Z,45.40
2022-12-26T06:53:53.557Z,45.08
2022-12-26T06:56:24.908Z,45.60
2022-12-26T06:59:04.851Z,44.42
2022-12-26T07:01:35.062Z,46.17
2022-12-26T07:04:04.826Z,46.83
2022-12-26T07:06:38.236Z,45.45
2022-12-26T07:09:08.189Z,45.25
2022-12-26T07:11:39.393Z,45.60
2022-12-26T07:14:08.838Z,44.25
2022-12-26T07:16:39.312Z,47.30
2022-12-26T07:19:07.896Z,45.50
2022-12-26T07:21:40.480Z,45.10
2022-12-26T07:24:22.618Z,45.35
2022-12-26T07:26:50.802Z,45.90
2022-12-26T07:29:20.206Z,48.13
2022-12-26T07:31:48.357Z,45.90
2022-12-26T07:34:16.565Z,46.85
2022-12-26T07:36:44.494Z,44.80
2022-12-26T07:39:14.581Z,46.10
2022-12-26T07:41:57.695Z,46.85
2022-12-26T07:44:29.354Z,46.42
2022-12-26T07:46:57.591Z,42.50
2022-12-26T07:49:26.618Z,42.75
2022-12-26T07:51:54.491Z,41.85
2022-12-26T07:54:22.837Z,45.95
2022-12-26T07:56:50.755Z,44.05
2022-12-26T07:59:19.007Z,43.72
2022-12-26T08:01:47.078Z,43.38
2022-12-26T08:04:16.632Z,41.28
2022-12-26T08:06:46.644Z,44.03
2022-12-26T08:09:16.262Z,42.55
2022-12-26T08:11:45.217Z,40.25
2022-12-26T08:14:16.976Z,41.42
2022-12-26T08:16:51.201Z,41.50
2022-12-26T08:19:21.350Z,41.30
2022-12-26T08:21:49.926Z,42.72
2022-12-26T08:24:18.125Z,41.72
2022-12-26T08:26:46.107Z,39.55
2022-12-26T08:29:15.530Z,40.85
2022-12-26T08:31:43.383Z,41.80
2022-12-26T08:34:11.787Z,40.53
2022-12-26T08:36:39.837Z,40.58
2022-12-26T08:39:08.695Z,42.05
2022-12-26T08:41:36.608Z,40.75
2022-12-26T08:46:52.867Z,38.88
2022-12-26T08:49:21.067Z,39.60
2022-12-26T08:51:49.457Z,39.65
2022-12-26T08:54:17.689Z,38.90
2022-12-26T08:56:45.548Z,40.33
2022-12-26T08:59:13.719Z,38.35
2022-12-26T09:01:41.720Z,42.65
2022-12-26T09:04:10.175Z,36.92
2022-12-26T09:06:39.932Z,36.70
2022-12-26T09:09:11.699Z,39.70
2022-12-26T09:11:41.312Z,37.00
2022-12-26T09:14:11.114Z,38.95
2022-12-26T09:16:49.246Z,37.95
2022-12-26T09:19:20.573Z,37.90
2022-12-26T09:22:10.500Z,41.30
2022-12-26T09:24:38.715Z,39.97
2022-12-26T09:27:06.787Z,40.35
2022-12-26T09:29:35.338Z,40.90
2022-12-26T09:32:03.145Z,42.80
2022-12-26T09:34:31.295Z,45.40
2022-12-26T09:36:59.145Z,45.55
2022-12-26T09:39:27.396Z,43.63
2022-12-26T09:42:32.395Z,47.20
2022-12-26T09:45:00.654Z,48.60
2022-12-26T09:47:33.080Z,45.28
2022-12-26T09:50:09.974Z,44.95
2022-12-26T09:52:58.472Z,51.10
2022-12-26T09:55:48.104Z,48.65
2022-12-26T09:58:21.456Z,47.83
2022-12-26T10:00:58.067Z,42.50
2022-12-26T10:03:26.138Z,40.42
2022-12-26T10:06:05.699Z,37.53
2022-12-26T10:08:53.535Z,34.47
2022-12-26T10:11:45.956Z,36.97
2022-12-26T10:14:47.766Z,35.30
2022-12-26T10:17:37.169Z,35.78
2022-12-26T10:20:08.178Z,37.10
2022-12-26T10:22:37.370Z,39.58
2022-12-26T10:25:34.188Z,36.45
2022-12-26T10:28:06.621Z,41.40
2022-12-26T10:30:39.860Z,42.20
2022-12-26T10:33:24.977Z,45.40
2022-12-26T10:35:53.284Z,42.88
2022-12-26T10:38:53.349Z,45.92
2022-12-26T10:41:27.874Z,41.80
2022-12-26T10:43:56.045Z,44.88
2022-12-26T10:46:54.935Z,42.95
2022-12-26T10:49:26.274Z,42.92
2022-12-26T10:51:57.656Z,46.70
2022-12-26T10:54:29.730Z,45.85
2022-12-26T10:56:59.416Z,52.70
2022-12-26T10:59:38.952Z,73.38
2022-12-26T11:02:28.518Z,46.97
2022-12-26T11:05:18.457Z,43.67
2022-12-26T11:08:14.745Z,41.55
2022-12-26T11:11:00.775Z,48.30
2022-12-26T11:13:35.162Z,44.78
2022-12-26T11:16:03.753Z,49.40
2022-12-26T11:18:31.653Z,45.53
2022-12-26T11:21:17.985Z,42.97
2022-12-26T11:23:47.365Z,42.95
2022-12-26T11:26:32.371Z,41.25
2022-12-26T11:29:25.260Z,42.17
2022-12-26T11:32:02.974Z,46.50
2022-12-26T11:34:47.798Z,42.83
2022-12-26T11:37:32.565Z,41.33
2022-12-26T11:40:01.938Z,42.03
2022-12-26T11:42:30.724Z,41.65
2022-12-26T11:45:04.074Z,44.13
2022-12-26T11:47:32.415Z,44.53
2022-12-26T11:50:04.652Z,48.97
2022-12-26T11:52:47.448Z,43.20
2022-12-26T11:55:33.725Z,54.13
2022-12-26T11:58:16.197Z,42.40
2022-12-26T12:01:07.523Z,43.05
2022-12-26T12:03:50.447Z,44.88
2022-12-26T12:06:44.146Z,40.72
2022-12-26T12:09:30.676Z,41.67
2022-12-26T12:12:23.164Z,42.05
2022-12-26T12:15:13.177Z,41.70
2022-12-26T12:17:43.729Z,42.80
2022-12-26T12:20:39.124Z,42.83
2022-12-26T12:23:37.755Z,50.20
2022-12-26T12:26:18.591Z,48.55
2022-12-26T12:29:14.307Z,46.28
2022-12-26T12:32:17.264Z,51.85
2022-12-26T12:34:47.687Z,49.38
2022-12-26T12:37:18.684Z,45.33
2022-12-26T12:40:24.124Z,48.47
2022-12-26T12:43:08.326Z,54.80
2022-12-26T12:45:56.544Z,51.33
2022-12-26T12:48:47.938Z,43.13
2022-12-26T12:51:44.405Z,50.95
2022-12-26T12:54:40.689Z,63.20
2022-12-26T12:57:50.665Z,44.67
2022-12-26T13:00:25.296Z,43.10
2022-12-26T13:03:22.522Z,41.42
2022-12-26T13:06:05.124Z,44.13
2022-12-26T13:08:42.139Z,56.55
2022-12-26T13:11:33.685Z,41.75
2022-12-26T13:14:07.663Z,41.22
2022-12-26T13:16:50.373Z,44.38
2022-12-26T13:19:48.695Z,43.85
2022-12-26T13:22:51.168Z,46.17
2022-12-26T13:25:20.546Z,51.45
2022-12-26T13:27:51.768Z,44.75
2022-12-26T13:30:19.814Z,47.33
2022-12-26T13:32:49.055Z,47.47
2022-12-26T13:35:50.755Z,48.53
2022-12-26T13:38:21.044Z,43.60
2022-12-26T13:41:20.864Z,47.45
2022-12-26T13:44:18.318Z,44.95
2022-12-26T13:46:46.059Z,49.80
2022-12-26T13:49:43.395Z,45.42
2022-12-26T13:52:11.249Z,48.72
2022-12-26T13:54:52.601Z,45.65
2022-12-26T13:57:45.120Z,46.05
2022-12-26T14:00:23.819Z,44.40
2022-12-26T14:03:19.047Z,46.25
2022-12-26T14:05:52.534Z,45.20
2022-12-26T14:08:38.580Z,47.83
2022-12-26T14:11:29.214Z,46.83
2022-12-26T14:14:10.083Z,46.08
2022-12-26T14:16:57.712Z,44.90
2022-12-26T14:19:49.870Z,59.97
2022-12-26T14:22:34.254Z,43.50
2022-12-26T14:25:20.664Z,44.80
2022-12-26T14:28:10.946Z,45.63
2022-12-26T14:31:12.637Z,44.83
2022-12-26T14:33:49.510Z,43.10
2022-12-26T14:37:07.204Z,44.20
2022-12-26T14:39:44.292Z,41.42
2022-12-26T14:42:42.477Z,42.03
2022-12-26T14:45:30.935Z,43.65
2022-12-26T14:47:59.257Z,42.95
2022-12-26T14:50:33.103Z,45.88
2022-12-26T14:53:28.251Z,44.17
2022-12-26T14:56:04.976Z,43.72
2022-12-26T14:58:43.951Z,46.35
2022-12-26T15:01:13.378Z,43.28
2022-12-26T15:03:56.341Z,44.08
2022-12-26T15:06:49.077Z,44.33
2022-12-26T15:09:40.508Z,45.75
2022-12-26T15:12:20.567Z,45.15
2022-12-26T15:15:06.695Z,42.17
2022-12-26T15:17:52.086Z,41.22
2022-12-26T15:20:53.643Z,44.83
2022-12-26T15:23:30.924Z,44.47
2022-12-26T15:26:07.647Z,44.30
2022-12-26T15:28:41.856Z,43.88
2022-12-26T15:34:00.065Z,46.30
2022-12-26T15:36:49.211Z,45.67
2022-12-26T15:39:30.533Z,46.33
2022-12-26T15:42:30.755Z,43.17
2022-12-26T15:45:21.741Z,40.97
2022-12-26T15:48:11.292Z,42.55
2022-12-26T15:51:01.145Z,42.60
2022-12-26T15:54:06.233Z,42.45
2022-12-26T15:57:01.908Z,42.92
2022-12-26T15:59:32.436Z,42.28
2022-12-26T16:02:01.108Z,42.92
2022-12-26T16:04:52.919Z,42.35
2022-12-26T16:07:40.978Z,46.50
2022-12-26T16:10:26.954Z,46.22
2022-12-26T16:13:07.577Z,42.03
2022-12-26T16:15:49.401Z,45.78
2022-12-26T16:18:23.384Z,40.78
2022-12-26T16:21:12.365Z,42.75
2022-12-26T16:23:43.173Z,44.53
2022-12-26T16:26:25.542Z,39.58
2022-12-26T16:28:55.249Z,41.53
2022-12-26T16:31:31.360Z,41.75
2022-12-26T16:34:00.425Z,40.60
2022-12-26T16:36:32.742Z,45.92
2022-12-26T16:39:00.872Z,44.90
2022-12-26T16:41:31.763Z,44.17
2022-12-26T16:44:35.698Z,43.95
2022-12-26T16:47:12.200Z,43.20
2022-12-26T16:49:43.731Z,43.90
2022-12-26T16:52:47.395Z,43.05
2022-12-26T16:55:52.024Z,41.13
2022-12-26T16:58:22.079Z,41.50
2022-12-26T17:00:58.999Z,44.30
2022-12-26T17:03:34.881Z,44.67
2022-12-26T17:06:22.163Z,42.47
2022-12-26T17:08:52.031Z,43.85
2022-12-26T17:11:30.670Z,44.58
2022-12-26T17:14:00.344Z,41.92
2022-12-26T17:16:31.444Z,44.50
2022-12-26T17:19:20.102Z,44.33
2022-12-26T17:22:40.337Z,45.50
2022-12-26T17:25:26.767Z,42.35
2022-12-26T17:28:10.118Z,42.08
2022-12-26T17:30:53.517Z,43.28
2022-12-26T17:33:23.541Z,44.45
2022-12-26T17:39:25.840Z,45.22
2022-12-26T17:42:02.574Z,45.22
2022-12-26T17:44:45.512Z,45.03
2022-12-26T17:47:31.839Z,44.15
2022-12-26T17:50:00.066Z,43.03
2022-12-26T17:52:29.578Z,91.60
2022-12-26T17:54:58.992Z,45.53
2022-12-26T17:57:29.341Z,46.28
2022-12-26T17:59:58.368Z,47.03
2022-12-26T18:02:26.448Z,42.45
2022-12-26T18:04:54.644Z,43.83
2022-12-26T18:07:31.477Z,41.63
2022-12-26T18:10:01.605Z,44.90
2022-12-26T18:12:29.549Z,45.58
2022-12-26T18:15:02.012Z,49.67
2022-12-26T18:17:33.413Z,46.20
2022-12-26T18:20:03.557Z,51.28
2022-12-26T18:22:31.440Z,48.55
2022-12-26T18:24:59.607Z,48.60
2022-12-26T18:27:32.795Z,48.47
2022-12-26T18:30:01.015Z,48.28
2022-12-26T18:32:31.725Z,44.53
2022-12-26T18:35:00.181Z,46.45
2022-12-26T18:37:30.109Z,51.08
2022-12-26T18:39:58.406Z,48.28
2022-12-26T18:42:27.460Z,46.22
2022-12-26T18:44:55.579Z,43.17
2022-12-26T18:47:23.603Z,45.97
2022-12-26T18:49:51.802Z,46.40
2022-12-26T18:52:19.712Z,46.55
2022-12-26T18:54:47.822Z,47.60
2022-12-26T18:57:19.731Z,41.33
2022-12-26T18:59:48.543Z,46.00
2022-12-26T19:02:19.027Z,44.42
2022-12-26T19:04:48.817Z,45.03
2022-12-26T19:07:18.368Z,46.88
2022-12-26T19:09:50.759Z,44.80
2022-12-26T19:12:18.721Z,46.22
2022-12-26T19:14:48.759Z,48.28
2022-12-26T19:17:17.574Z,47.42
2022-12-26T19:19:45.715Z,45.47
2022-12-26T19:22:13.428Z,45.13
2022-12-26T19:24:42.615Z,45.13
2022-12-26T19:27:10.372Z,42.40
2022-12-26T19:29:38.542Z,46.22
2022-12-26T19:32:06.343Z,48.75
2022-12-26T19:34:34.537Z,45.67
2022-12-26T19:37:02.765Z,45.83
2022-12-26T19:39:30.870Z,45.47
2022-12-26T19:41:58.637Z,48.63
2022-12-26T19:44:30.915Z,47.22
2022-12-26T19:47:11.616Z,46.42
2022-12-26T19:49:41.803Z,46.00
2022-12-26T19:52:11.394Z,45.58
2022-12-26T19:54:39.819Z,47.45
2022-12-26T19:57:07.973Z,46.13
2022-12-26T19:59:36.473Z,48.92
2022-12-26T20:02:06.083Z,47.97
2022-12-26T20:04:34.447Z,48.28
2022-12-26T20:07:02.292Z,48.60
2022-12-26T20:09:32.606Z,52.53
2022-12-26T20:12:02.334Z,51.35
2022-12-26T20:14:32.976Z,50.28
2022-12-26T20:17:06.783Z,50.63
2022-12-26T20:19:35.987Z,49.92
2022-12-26T20:22:05.340Z,53.35
2022-12-26T20:24:34.352Z,51.15
2022-12-26T20:27:03.332Z,51.30
2022-12-26T20:29:31.845Z,49.05
2022-12-26T20:32:00.065Z,51.63
2022-12-26T20:34:29.736Z,49.58
2022-12-26T20:36:58.222Z,47.83
2022-12-26T20:39:27.581Z,48.30
2022-12-26T20:41:55.420Z,52.92
2022-12-26T20:44:24.707Z,54.10
2022-12-26T20:46:52.594Z,54.25
2022-12-26T20:49:21.020Z,51.33
2022-12-26T20:51:49.095Z,51.30
2022-12-26T20:54:17.618Z,50.10
2022-12-26T20:56:46.088Z,53.67
2022-12-26T20:59:15.244Z,51.00
2022-12-26T21:01:43.290Z,54.75
2022-12-26T21:04:18.782Z,52.83
2022-12-26T21:06:47.668Z,49.22
2022-12-26T21:09:16.607Z,50.83
2022-12-26T21:11:45.860Z,46.42
2022-12-26T21:14:18.674Z,46.95
2022-12-26T21:16:56.374Z,48.60
2022-12-26T21:19:26.945Z,48.33
2022-12-26T21:21:55.902Z,47.92
2022-12-26T21:24:31.314Z,47.22
2022-12-26T21:27:00.336Z,49.60
2022-12-26T21:29:31.613Z,47.53
2022-12-26T21:32:01.278Z,50.13
2022-12-26T21:34:31.802Z,48.05
2022-12-26T21:37:18.938Z,49.65
2022-12-26T21:39:49.874Z,48.80
2022-12-26T21:42:18.053Z,49.92
2022-12-26T21:44:48.013Z,51.88
2022-12-26T21:47:16.486Z,47.45
2022-12-26T21:49:44.540Z,49.55
2022-12-26T21:52:12.399Z,49.92
2022-12-26T21:54:59.009Z,47.10
2022-12-26T21:57:26.878Z,48.55
2022-12-26T21:59:58.281Z,48.47
2022-12-26T22:02:51.939Z,50.92
2022-12-26T22:05:24.191Z,48.63
2022-12-26T22:07:54.828Z,49.45
2022-12-26T22:10:47.654Z,50.10
2022-12-26T22:13:15.700Z,49.53
2022-12-26T22:16:03.568Z,51.28
2022-12-26T22:18:36.260Z,49.15
2022-12-26T22:21:19.983Z,49.08
2022-12-26T22:23:50.921Z,49.90
2022-12-26T22:26:21.351Z,48.88
2022-12-26T22:28:50.417Z,50.58
2022-12-26T22:31:28.883Z,48.75
2022-12-26T22:33:59.064Z,47.65
2022-12-26T22:36:28.912Z,49.63
2022-12-26T22:38:57.973Z,49.30
2022-12-26T22:41:27.344Z,48.35
2022-12-26T22:43:56.309Z,52.97
2022-12-26T22:46:25.602Z,49.10
2022-12-26T22:48:53.323Z,49.25
2022-12-26T22:51:24.207Z,46.95
2022-12-26T22:53:57.713Z,50.65
2022-12-26T22:58:54.914Z,46.72
2022-12-26T23:01:24.273Z,47.90
2022-12-26T23:03:52.079Z,48.95
2022-12-26T23:06:24.583Z,46.92
2022-12-26T23:08:54.555Z,49.72
2022-12-26T23:11:28.774Z,48.35
2022-12-26T23:14:02.772Z,48.05
2022-12-26T23:16:45.376Z,49.97
2022-12-26T23:19:39.814Z,50.83
2022-12-26T23:22:08.204Z,51.85
2022-12-26T23:24:37.088Z,49.50
2022-12-26T23:27:26.614Z,49.22
2022-12-26T23:30:14.286Z,47.35
2022-12-26T23:32:44.803Z,49.08
2022-12-26T23:35:13.334Z,50.20
2022-12-26T23:37:42.424Z,47.63
2022-12-26T23:40:13.495Z,51.38
2022-12-26T23:42:42.155Z,50.70
2022-12-26T23:45:11.610Z,50.65
2022-12-26T23:47:43.066Z,50.50
2022-12-26T23:50:13.429Z,51.55
2022-12-26T23:52:42.284Z,48.88
2022-12-26T23:55:11.154Z,49.42
2022-12-26T23:57:40.723Z,50.50
